Time;durP1;ratioP1;P1;durP2;ratioP2;P2;SDS_P1;SDS_P2;PMS_P1;PMS_P2;Temp;Humidity;BMP_temperature;BMP_pressure;BME280_temperature;BME280_humidity;BME280_pressure;Samples;Min_cycle;Max_cycle;Signal;HPM_P1;HPM_P2
2020/12/20 00:02:12;;;;;;;13.13;11.83;;;7.80;99.90;;;;;;4993736;28;20451;-25
2020/12/20 00:04:39;;;;;;;12.03;10.90;;;7.70;99.90;;;;;;4993830;28;20495;-25
2020/12/20 00:07:08;;;;;;;12.07;10.07;;;7.70;99.90;;;;;;4993307;28;20484;-25
2020/12/20 00:09:36;;;;;;;10.77;9.77;;;7.70;99.90;;;;;;4992030;28;20514;-25
2020/12/20 00:12:03;;;;;;;11.03;10.03;;;7.70;99.90;;;;;;4994101;28;20905;-25
2020/12/20 00:14:30;;;;;;;12.97;11.70;;;7.70;99.90;;;;;;4993067;28;20480;-25
2020/12/20 00:17:04;;;;;;;13.03;11.67;;;7.60;99.90;;;;;;4992055;28;20536;-25
2020/12/20 00:19:33;;;;;;;10.00;9.07;;;7.70;99.90;;;;;;4991530;28;20436;-26
2020/12/20 00:22:02;;;;;;;12.93;11.63;;;7.60;99.90;;;;;;4994506;28;20901;-25
2020/12/20 00:24:29;;;;;;;11.70;10.57;;;7.70;99.90;;;;;;4991492;28;20436;-25
2020/12/20 00:26:57;;;;;;;11.87;10.77;;;7.70;99.90;;;;;;4993255;28;20507;-25
2020/12/20 00:29:27;;;;;;;11.60;10.60;;;7.60;99.90;;;;;;4994049;28;20753;-25
2020/12/20 00:31:55;;;;;;;9.90;9.10;;;7.60;99.90;;;;;;4993377;28;20454;-25
2020/12/20 00:34:22;;;;;;;10.43;9.33;;;7.50;99.90;;;;;;4991720;28;20443;-25
2020/12/20 00:36:50;;;;;;;10.57;9.60;;;7.40;99.90;;;;;;4991660;28;20445;-25
2020/12/20 00:39:18;;;;;;;11.50;10.37;;;7.40;99.90;;;;;;4993728;28;20494;-25
2020/12/20 00:41:49;;;;;;;11.20;10.20;;;7.50;99.90;;;;;;4992014;28;20452;-25
2020/12/20 00:44:17;;;;;;;10.90;9.83;;;7.50;99.90;;;;;;4992299;28;20492;-25
2020/12/20 00:46:44;;;;;;;10.47;9.47;;;7.50;99.90;;;;;;4992515;28;20619;-25
2020/12/20 00:49:13;;;;;;;10.27;9.43;;;7.50;99.90;;;;;;4994119;28;20491;-25
2020/12/20 00:51:39;;;;;;;11.03;10.23;;;7.50;99.90;;;;;;5011659;28;20471;-25
2020/12/20 00:54:07;;;;;;;11.17;10.13;;;7.60;99.90;;;;;;5011341;28;20462;-26
2020/12/20 00:56:34;;;;;;;10.97;9.90;;;7.60;99.90;;;;;;5012915;28;20448;-25
2020/12/20 00:59:04;;;;;;;10.07;9.10;;;7.60;99.90;;;;;;5013024;28;20885;-25
2020/12/20 01:01:34;;;;;;;10.97;9.97;;;7.60;99.90;;;;;;5012481;28;20505;-25
2020/12/20 01:04:21;;;;;;;11.90;10.70;;;7.60;99.90;;;;;;5012167;28;20453;-25
2020/12/20 01:06:47;;;;;;;10.80;9.70;;;7.70;99.90;;;;;;5012536;28;20467;-25
2020/12/20 01:09:23;;;;;;;10.37;9.50;;;7.70;99.90;;;;;;5010815;28;20443;-25
2020/12/20 01:11:51;;;;;;;10.97;9.90;;;7.70;99.90;;;;;;5011194;28;20780;-25
2020/12/20 01:14:22;;;;;;;10.27;9.27;;;7.70;99.90;;;;;;5011300;28;20459;-25
2020/12/20 01:16:58;;;;;;;11.27;10.30;;;7.70;99.90;;;;;;5012684;28;20841;-25
2020/12/20 01:19:25;;;;;;;9.83;8.93;;;7.70;99.90;;;;;;5012617;28;21032;-25
2020/12/20 01:21:52;;;;;;;10.87;9.73;;;7.60;99.90;;;;;;5011839;28;20444;-26
2020/12/20 01:24:20;;;;;;;11.30;10.20;;;7.60;99.90;;;;;;5011904;28;20581;-25
2020/12/20 01:26:47;;;;;;;11.83;10.63;;;7.70;99.90;;;;;;5012290;28;20745;-25
2020/12/20 01:29:14;;;;;;;10.03;9.13;;;7.50;99.90;;;;;;5009525;28;20483;-26
2020/12/20 01:31:41;;;;;;;9.10;8.37;;;7.50;99.90;;;;;;4990344;28;20456;-25
2020/12/20 01:34:18;;;;;;;11.77;9.70;;;7.40;99.90;;;;;;4991161;28;20436;-26
2020/12/20 01:36:46;;;;;;;9.80;9.00;;;7.40;99.90;;;;;;4990475;28;20444;-25
2020/12/20 01:39:15;;;;;;;9.43;8.63;;;7.40;99.90;;;;;;4991666;28;20506;-25
2020/12/20 01:41:42;;;;;;;9.60;8.90;;;7.50;99.90;;;;;;4992973;28;20535;-26
2020/12/20 01:44:15;;;;;;;9.70;8.80;;;7.50;99.90;;;;;;4993655;28;20487;-25
2020/12/20 01:46:47;;;;;;;9.90;8.87;;;7.50;99.90;;;;;;4993222;28;20563;-25
2020/12/20 01:49:19;;;;;;;10.00;9.13;;;7.40;99.90;;;;;;4994214;28;20439;-25
2020/12/20 01:51:50;;;;;;;9.33;8.63;;;7.40;99.90;;;;;;4993834;28;20563;-25
2020/12/20 01:54:20;;;;;;;10.50;9.60;;;7.30;99.90;;;;;;4993724;28;20448;-25
2020/12/20 01:57:02;;;;;;;13.70;10.10;;;7.30;99.90;;;;;;4994221;28;20448;-25
2020/12/20 01:59:44;;;;;;;10.80;9.70;;;7.20;99.90;;;;;;4994412;28;20479;-26
2020/12/20 02:02:12;;;;;;;9.87;8.90;;;7.30;99.90;;;;;;4991693;28;20468;-25
2020/12/20 02:04:47;;;;;;;9.97;9.17;;;7.30;99.90;;;;;;4990537;28;20439;-25
2020/12/20 02:07:16;;;;;;;9.63;8.90;;;7.40;99.90;;;;;;4992843;28;20468;-26
2020/12/20 02:09:46;;;;;;;9.27;8.50;;;7.40;99.90;;;;;;4992644;28;20475;-25
2020/12/20 02:12:16;;;;;;;9.37;8.67;;;7.50;99.90;;;;;;4991611;28;20753;-25
2020/12/20 02:15:00;;;;;;;10.10;9.10;;;7.60;99.90;;;;;;4991986;28;20448;-25
2020/12/20 02:17:27;;;;;;;9.23;8.33;;;7.60;99.90;;;;;;4991975;28;20461;-25
2020/12/20 02:19:56;;;;;;;9.10;8.30;;;7.60;99.90;;;;;;4988358;28;20497;-25
2020/12/20 02:22:42;;;;;;;9.40;8.60;;;7.60;99.90;;;;;;4973079;28;20453;-26
2020/12/20 02:25:11;;;;;;;9.17;8.40;;;7.60;99.90;;;;;;5005158;28;20537;-26
2020/12/20 02:27:58;;;;;;;9.10;8.30;;;7.60;99.90;;;;;;4973131;28;20484;-25
2020/12/20 02:30:32;;;;;;;9.73;8.87;;;7.50;99.90;;;;;;5003756;28;20433;-25
2020/12/20 02:32:59;;;;;;;10.87;9.83;;;7.50;99.90;;;;;;5005600;28;20541;-25
2020/12/20 02:35:26;;;;;;;10.00;9.10;;;7.40;99.90;;;;;;5006932;28;20993;-25
2020/12/20 02:37:54;;;;;;;10.80;9.80;;;7.30;99.90;;;;;;5008353;28;20528;-25
2020/12/20 02:40:23;;;;;;;9.63;8.93;;;7.40;99.90;;;;;;5007887;28;20693;-25
2020/12/20 02:42:59;;;;;;;9.80;9.00;;;7.50;99.90;;;;;;5007611;28;20480;-25
2020/12/20 02:45:26;;;;;;;10.13;9.27;;;7.50;99.90;;;;;;5008911;28;20538;-25
2020/12/20 02:47:54;;;;;;;9.73;8.93;;;7.50;99.90;;;;;;5011574;28;20475;-25
2020/12/20 02:50:23;;;;;;;8.57;7.87;;;7.50;99.90;;;;;;5011312;28;20440;-25
2020/12/20 02:52:50;;;;;;;9.13;8.50;;;7.50;99.90;;;;;;4995926;28;21191;-25
2020/12/20 02:55:19;;;;;;;8.73;8.13;;;7.50;99.90;;;;;;5011268;28;20448;-25
2020/12/20 02:57:53;;;;;;;9.67;8.97;;;7.50;99.90;;;;;;5010496;28;20866;-25
2020/12/20 03:00:39;;;;;;;9.90;8.90;;;7.50;99.90;;;;;;4996278;28;20808;-25
2020/12/20 03:03:10;;;;;;;9.57;8.73;;;7.60;99.90;;;;;;5011080;28;20995;-25
2020/12/20 03:05:41;;;;;;;9.97;9.17;;;7.60;99.90;;;;;;5010973;28;20476;-25
2020/12/20 03:08:08;;;;;;;10.20;9.27;;;7.60;99.90;;;;;;5011611;28;20459;-25
2020/12/20 03:10:38;;;;;;;9.93;9.13;;;7.50;99.90;;;;;;5006442;28;20492;-25
2020/12/20 03:13:07;;;;;;;9.30;8.50;;;7.50;99.90;;;;;;4972882;28;20513;-25
2020/12/20 03:15:38;;;;;;;9.27;8.47;;;7.40;99.90;;;;;;4956364;29;20450;-25
2020/12/20 03:18:06;;;;;;;9.17;8.47;;;7.50;99.90;;;;;;4988133;28;20449;-25
2020/12/20 03:20:34;;;;;;;9.60;8.90;;;7.40;99.90;;;;;;4971946;28;20876;-25
2020/12/20 03:23:04;;;;;;;10.50;9.53;;;7.40;99.90;;;;;;4956524;29;20446;-25
2020/12/20 03:25:49;;;;;;;9.00;8.30;;;7.50;99.90;;;;;;4958079;28;20556;-25
2020/12/20 03:28:23;;;;;;;9.50;8.70;;;7.40;99.90;;;;;;4990723;28;20852;-25
2020/12/20 03:31:15;;;;;;;9.60;8.80;;;7.30;99.90;;;;;;4976018;28;20464;-26
2020/12/20 03:34:03;;;;;;;9.63;8.80;;;7.30;99.90;;;;;;4976414;28;20537;-25
2020/12/20 03:36:37;;;;;;;9.40;8.40;;;7.40;99.90;;;;;;4991707;28;20494;-26
2020/12/20 03:39:09;;;;;;;8.83;7.93;;;7.40;99.90;;;;;;4995063;28;21120;-25
2020/12/20 03:41:37;;;;;;;9.00;8.27;;;7.50;99.90;;;;;;4993853;28;20563;-25
2020/12/20 03:44:06;;;;;;;9.53;8.63;;;7.50;99.90;;;;;;4993105;28;21034;-26
2020/12/20 03:46:34;;;;;;;9.00;8.20;;;7.50;99.90;;;;;;4993851;28;20759;-25
2020/12/20 03:49:01;;;;;;;9.50;8.60;;;7.50;99.90;;;;;;4993886;28;20506;-25
2020/12/20 03:51:29;;;;;;;8.50;7.70;;;7.50;99.90;;;;;;4993954;28;20977;-25
2020/12/20 03:53:59;;;;;;;9.27;8.37;;;7.60;99.90;;;;;;4992668;28;20550;-25
2020/12/20 03:56:28;;;;;;;9.47;8.67;;;7.50;99.90;;;;;;4994893;28;20514;-26
2020/12/20 03:59:03;;;;;;;9.00;8.20;;;7.50;99.90;;;;;;4993955;28;20490;-25
2020/12/20 04:01:34;;;;;;;9.93;9.03;;;7.60;99.90;;;;;;4995627;28;20474;-26
2020/12/20 04:04:01;;;;;;;8.70;7.90;;;7.60;99.90;;;;;;4995993;28;20441;-25
2020/12/20 04:06:28;;;;;;;9.53;8.87;;;7.60;99.90;;;;;;4992605;28;20587;-25
2020/12/20 04:08:58;;;;;;;8.70;7.93;;;7.60;99.90;;;;;;4994436;28;20452;-25
2020/12/20 04:11:47;;;;;;;8.10;7.40;;;7.60;99.90;;;;;;4993865;28;20476;-25
2020/12/20 04:14:17;;;;;;;8.63;7.93;;;7.60;99.90;;;;;;4992812;28;21128;-25
2020/12/20 04:16:45;;;;;;;8.87;8.17;;;7.60;99.90;;;;;;5001382;28;20456;-25
2020/12/20 04:19:15;;;;;;;9.53;8.73;;;7.60;99.90;;;;;;5011713;28;20432;-25
2020/12/20 04:21:49;;;;;;;9.80;9.00;;;7.60;99.90;;;;;;5013814;28;20526;-25
2020/12/20 04:24:44;;;;;;;8.10;7.47;;;7.60;99.90;;;;;;5010622;28;20460;-25
2020/12/20 04:27:15;;;;;;;9.40;8.63;;;7.60;99.90;;;;;;4998557;28;20476;-25
2020/12/20 04:29:56;;;;;;;8.70;8.00;;;7.40;99.90;;;;;;4993498;28;21040;-25
2020/12/20 04:32:23;;;;;;;8.90;8.20;;;7.40;99.90;;;;;;4993312;28;20440;-25
2020/12/20 04:34:52;;;;;;;9.93;9.00;;;7.40;99.90;;;;;;4991367;28;20441;-25
2020/12/20 04:37:19;;;;;;;8.83;8.10;;;7.40;99.90;;;;;;4992028;28;20468;-25
2020/12/20 04:40:11;;;;;;;10.73;9.60;;;7.50;99.90;;;;;;4991718;28;20467;-26
2020/12/20 04:42:46;;;;;;;10.30;9.23;;;7.40;99.90;;;;;;4989394;28;20448;-26
2020/12/20 04:45:16;;;;;;;10.30;9.30;;;7.50;99.90;;;;;;4988148;28;20487;-25
2020/12/20 04:47:52;;;;;;;10.47;9.30;;;7.50;99.90;;;;;;4988375;28;20475;-26
2020/12/20 04:50:22;;;;;;;9.50;8.70;;;7.40;99.90;;;;;;4988291;28;20471;-25
2020/12/20 04:52:51;;;;;;;9.07;8.27;;;7.50;99.90;;;;;;4989144;28;20478;-25
2020/12/20 04:55:33;;;;;;;9.80;9.10;;;7.40;99.90;;;;;;4988572;28;20506;-25
2020/12/20 04:58:22;;;;;;;8.80;8.10;;;7.40;99.90;;;;;;4989007;28;20436;-26
2020/12/20 05:00:51;;;;;;;9.83;8.93;;;7.40;99.90;;;;;;4989022;28;20441;-25
2020/12/20 05:03:18;;;;;;;9.70;8.90;;;7.20;99.90;;;;;;4988620;28;20436;-25
2020/12/20 05:05:49;;;;;;;8.83;8.13;;;7.00;99.90;;;;;;4989632;28;20445;-25
2020/12/20 05:08:19;;;;;;;9.60;8.73;;;7.00;99.90;;;;;;4987891;28;20786;-26
2020/12/20 05:10:46;;;;;;;8.83;8.13;;;7.00;99.90;;;;;;4987039;28;20441;-25
2020/12/20 05:13:14;;;;;;;10.50;9.60;;;7.10;99.90;;;;;;4988249;28;20449;-25
2020/12/20 05:15:40;;;;;;;11.00;9.90;;;7.10;99.90;;;;;;4983546;28;20848;-26
2020/12/20 05:18:26;;;;;;;10.60;9.70;;;7.10;99.90;;;;;;4968380;28;20452;-26
2020/12/20 05:21:01;;;;;;;9.57;8.77;;;7.10;99.90;;;;;;4983281;28;20429;-26
2020/12/20 05:23:30;;;;;;;9.27;8.40;;;7.10;99.90;;;;;;4968535;28;20747;-25
2020/12/20 05:26:09;;;;;;;8.93;8.13;;;7.10;99.90;;;;;;4983400;28;20457;-25
2020/12/20 05:28:40;;;;;;;10.20;9.30;;;7.10;99.90;;;;;;4985055;28;20448;-25
2020/12/20 05:31:08;;;;;;;9.17;8.47;;;7.10;99.90;;;;;;4985010;28;20453;-25
2020/12/20 05:34:06;;;;;;;9.00;8.10;;;7.00;99.90;;;;;;4984074;28;20522;-25
2020/12/20 05:36:40;;;;;;;9.00;8.30;;;7.00;99.90;;;;;;4983541;28;20457;-25
2020/12/20 05:39:37;;;;;;;8.93;8.17;;;7.10;99.90;;;;;;4967732;28;20867;-26
2020/12/20 05:42:14;;;;;;;10.27;9.37;;;7.10;99.90;;;;;;4984086;28;20808;-26
2020/12/20 05:44:41;;;;;;;9.97;9.20;;;6.90;99.90;;;;;;4983588;28;20480;-25
2020/12/20 05:47:22;;;;;;;9.23;8.53;;;6.90;99.90;;;;;;4985605;28;20698;-26
2020/12/20 05:49:50;;;;;;;10.13;9.27;;;6.80;99.90;;;;;;4983492;28;20812;-25
2020/12/20 05:52:18;;;;;;;9.27;8.57;;;6.70;99.90;;;;;;4982660;28;20461;-26
2020/12/20 05:54:44;;;;;;;10.03;9.17;;;6.70;99.90;;;;;;4969708;28;20449;-26
2020/12/20 05:57:12;;;;;;;9.60;8.80;;;6.70;99.90;;;;;;4968991;28;20464;-25
2020/12/20 05:59:40;;;;;;;10.40;9.50;;;6.80;99.90;;;;;;4968250;28;20446;-25
2020/12/20 06:02:08;;;;;;;10.30;9.30;;;6.80;99.90;;;;;;4968128;28;20717;-25
2020/12/20 06:04:35;;;;;;;8.87;8.10;;;6.90;99.90;;;;;;4986079;28;20500;-26
2020/12/20 06:07:04;;;;;;;10.10;8.53;;;6.90;99.90;;;;;;4970235;28;20938;-25
2020/12/20 06:09:31;;;;;;;8.73;8.03;;;6.90;99.90;;;;;;4971389;28;20988;-26
2020/12/20 06:11:59;;;;;;;9.70;8.90;;;6.90;99.90;;;;;;4985598;28;20805;-25
2020/12/20 06:14:28;;;;;;;10.17;9.17;;;6.90;99.90;;;;;;4988350;28;20796;-26
2020/12/20 06:17:11;;;;;;;10.83;8.73;;;6.90;99.90;;;;;;4991662;28;20494;-25
2020/12/20 06:19:50;;;;;;;9.60;8.80;;;6.90;99.90;;;;;;4989996;28;20466;-26
2020/12/20 06:22:20;;;;;;;9.80;8.93;;;6.80;99.90;;;;;;4990031;28;20468;-25
2020/12/20 06:24:48;;;;;;;9.20;8.30;;;6.90;99.90;;;;;;4991294;28;20436;-25
2020/12/20 06:27:16;;;;;;;8.80;8.20;;;6.90;99.90;;;;;;4988114;28;20500;-26
2020/12/20 06:29:51;;;;;;;9.23;8.43;;;6.90;99.90;;;;;;4988329;28;20816;-26
2020/12/20 06:32:29;;;;;;;11.20;10.33;;;6.80;99.90;;;;;;4987625;28;20752;-26
2020/12/20 06:35:00;;;;;;;11.87;8.93;;;6.60;99.90;;;;;;4987716;28;20479;-25
2020/12/20 06:37:29;;;;;;;9.50;8.80;;;6.70;99.90;;;;;;4987970;28;20456;-25
2020/12/20 06:39:55;;;;;;;10.63;9.30;;;6.70;99.90;;;;;;4988753;28;20503;-25
2020/12/20 06:42:37;;;;;;;10.07;9.20;;;6.70;99.90;;;;;;4988625;28;20712;-26
2020/12/20 06:45:11;;;;;;;9.33;8.43;;;6.70;99.90;;;;;;4990677;28;20440;-25
2020/12/20 06:47:41;;;;;;;9.23;8.43;;;6.70;99.90;;;;;;4989378;28;20471;-25
2020/12/20 06:50:07;;;;;;;9.37;8.57;;;6.70;99.90;;;;;;4990698;28;20475;-25
2020/12/20 06:52:46;;;;;;;9.03;8.17;;;6.70;99.90;;;;;;4990569;28;20518;-25
2020/12/20 06:55:14;;;;;;;9.20;8.50;;;6.70;99.90;;;;;;4988438;28;20447;-26
2020/12/20 06:58:10;;;;;;;10.63;9.50;;;6.70;99.90;;;;;;4989438;28;20463;-26
2020/12/20 07:00:41;;;;;;;10.03;9.17;;;6.80;99.90;;;;;;4990435;28;21085;-25
2020/12/20 07:03:08;;;;;;;11.73;8.83;;;6.80;99.90;;;;;;4990572;28;20688;-25
2020/12/20 07:05:39;;;;;;;11.17;10.17;;;6.80;99.90;;;;;;4990965;28;20938;-26
2020/12/20 07:08:19;;;;;;;10.60;9.70;;;6.80;99.90;;;;;;4990951;28;20522;-25
2020/12/20 07:10:48;;;;;;;10.97;9.93;;;6.80;99.90;;;;;;4989715;28;20495;-25
2020/12/20 07:13:30;;;;;;;10.00;9.30;;;6.90;99.90;;;;;;4990360;28;20440;-26
2020/12/20 07:16:04;;;;;;;9.57;8.87;;;6.90;99.90;;;;;;4988582;28;21080;-25
2020/12/20 07:18:55;;;;;;;11.00;10.00;;;6.90;99.90;;;;;;4991051;28;20441;-26
2020/12/20 07:21:46;;;;;;;10.57;9.87;;;7.00;99.90;;;;;;4988994;28;20518;-25
2020/12/20 07:24:19;;;;;;;11.33;10.30;;;7.00;99.90;;;;;;4993479;28;20787;-25
2020/12/20 07:26:47;;;;;;;10.90;10.00;;;7.00;99.90;;;;;;4993046;28;20534;-25
2020/12/20 07:29:14;;;;;;;9.20;8.10;;;6.90;99.90;;;;;;4992781;28;20753;-25
2020/12/20 07:31:41;;;;;;;9.87;8.97;;;6.80;99.90;;;;;;4992613;28;20846;-25
2020/12/20 07:34:08;;;;;;;8.97;8.27;;;6.70;99.90;;;;;;4992256;28;20439;-25
2020/12/20 07:36:35;;;;;;;10.07;9.07;;;6.80;99.90;;;;;;4991693;28;20865;-26
2020/12/20 07:39:03;;;;;;;9.90;9.00;;;6.80;99.90;;;;;;4991839;28;20684;-25
2020/12/20 07:41:30;;;;;;;10.87;9.87;;;6.80;99.90;;;;;;4989425;28;20543;-25
2020/12/20 07:43:59;;;;;;;8.87;8.13;;;6.80;99.90;;;;;;4990955;28;20460;-25
2020/12/20 07:46:26;;;;;;;10.93;9.00;;;6.80;99.90;;;;;;4990552;28;20919;-26
2020/12/20 07:48:52;;;;;;;9.13;8.23;;;6.70;99.90;;;;;;4990780;28;20448;-25
2020/12/20 07:51:21;;;;;;;9.60;8.80;;;6.70;99.90;;;;;;4990547;28;20850;-25
2020/12/20 07:53:49;;;;;;;9.53;8.63;;;6.70;99.90;;;;;;4991398;28;20739;-25
2020/12/20 07:56:20;;;;;;;10.43;9.43;;;6.80;99.90;;;;;;4991837;28;20471;-26
2020/12/20 07:58:48;;;;;;;9.70;8.80;;;6.80;99.90;;;;;;4991413;28;20523;-26
2020/12/20 08:01:15;;;;;;;9.63;8.70;;;6.90;99.90;;;;;;4990581;28;20454;-25
2020/12/20 08:03:41;;;;;;;10.13;9.23;;;7.00;99.90;;;;;;4992042;28;20437;-24
2020/12/20 08:06:09;;;;;;;10.17;9.23;;;7.10;99.90;;;;;;4990502;28;20897;-24
2020/12/20 08:08:36;;;;;;;9.50;8.70;;;7.10;99.90;;;;;;4991760;28;20828;-24
2020/12/20 08:11:04;;;;;;;9.80;8.70;;;7.10;99.90;;;;;;4989987;28;20517;-25
2020/12/20 08:13:32;;;;;;;17.80;16.10;;;7.20;99.90;;;;;;4990240;28;20886;-25
2020/12/20 08:15:59;;;;;;;10.40;9.40;;;7.30;99.90;;;;;;4988563;28;20578;-25
2020/12/20 08:18:25;;;;;;;10.50;9.60;;;7.40;99.90;;;;;;4990474;28;20962;-25
2020/12/20 08:20:53;;;;;;;10.37;9.47;;;7.30;99.90;;;;;;4990794;28;20436;-26
2020/12/20 08:23:22;;;;;;;11.43;10.40;;;7.30;99.90;;;;;;4990353;28;20456;-26
2020/12/20 08:25:48;;;;;;;9.63;8.80;;;7.40;99.90;;;;;;4987373;28;20447;-25
2020/12/20 08:28:15;;;;;;;11.43;10.33;;;7.50;99.90;;;;;;4987661;28;20464;-24
2020/12/20 08:30:42;;;;;;;10.60;9.70;;;7.50;99.90;;;;;;4986460;28;20510;-25
2020/12/20 08:33:10;;;;;;;10.97;9.90;;;7.50;99.90;;;;;;4989247;28;20709;-24
2020/12/20 08:35:36;;;;;;;10.43;9.53;;;7.50;99.90;;;;;;4986432;28;20458;-24
2020/12/20 08:38:03;;;;;;;10.37;9.37;;;7.50;99.90;;;;;;4987069;28;20510;-24
2020/12/20 08:40:31;;;;;;;9.83;8.93;;;7.60;99.90;;;;;;4988530;28;20445;-24
2020/12/20 08:42:59;;;;;;;10.97;9.60;;;7.60;99.90;;;;;;4988360;28;20465;-24
2020/12/20 08:45:29;;;;;;;10.40;9.50;;;7.70;99.90;;;;;;4987752;28;20444;-24
2020/12/20 08:48:02;;;;;;;11.80;10.70;;;7.70;99.90;;;;;;4988556;28;20464;-24
2020/12/20 08:50:31;;;;;;;12.03;10.17;;;7.70;99.90;;;;;;4989245;28;20729;-24
2020/12/20 08:52:59;;;;;;;11.47;10.47;;;7.70;99.90;;;;;;4988416;28;20851;-25
2020/12/20 08:55:26;;;;;;;10.70;9.70;;;7.70;99.90;;;;;;4989175;28;21100;-24
2020/12/20 08:58:02;;;;;;;10.40;9.43;;;7.70;99.90;;;;;;4987414;28;20858;-24
2020/12/20 09:00:28;;;;;;;11.07;10.17;;;7.60;99.90;;;;;;4986320;28;20727;-25
2020/12/20 09:02:59;;;;;;;10.40;9.50;;;7.50;99.90;;;;;;4986528;28;20542;-24
2020/12/20 09:05:33;;;;;;;11.10;10.10;;;7.50;99.90;;;;;;4985067;28;20433;-24
2020/12/20 09:08:02;;;;;;;13.23;11.40;;;7.60;99.90;;;;;;4991015;28;20491;-24
2020/12/20 09:10:31;;;;;;;9.53;8.73;;;7.80;99.90;;;;;;4992443;28;20448;-24
2020/12/20 09:12:59;;;;;;;12.93;11.13;;;7.90;99.90;;;;;;4990406;28;20680;-23
2020/12/20 09:15:32;;;;;;;24.90;15.60;;;8.10;99.90;;;;;;4988755;28;20487;-26
2020/12/20 09:18:01;;;;;;;20.80;13.67;;;8.20;99.90;;;;;;4987072;28;20790;-26
2020/12/20 09:20:30;;;;;;;24.73;16.60;;;8.00;99.90;;;;;;4987458;28;20779;-25
2020/12/20 09:22:57;;;;;;;14.50;11.60;;;8.20;99.90;;;;;;4984748;28;20464;-25
2020/12/20 09:25:35;;;;;;;12.47;11.30;;;8.30;99.90;;;;;;4985260;28;20436;-25
2020/12/20 09:28:05;;;;;;;10.67;9.57;;;8.50;99.90;;;;;;4986194;28;20518;-25
2020/12/20 09:30:37;;;;;;;10.57;9.73;;;8.70;99.90;;;;;;4987689;28;20583;-25
2020/12/20 09:33:32;;;;;;;10.50;9.50;;;9.10;99.90;;;;;;4985952;28;20467;-25
2020/12/20 09:36:02;;;;;;;11.60;10.43;;;9.40;99.90;;;;;;4961545;28;20601;-25
2020/12/20 09:38:31;;;;;;;10.10;9.20;;;9.60;99.90;;;;;;4988661;28;20769;-25
2020/12/20 09:41:03;;;;;;;10.07;9.20;;;9.90;99.90;;;;;;4987881;28;20698;-25
2020/12/20 09:43:30;;;;;;;11.77;10.67;;;10.10;99.90;;;;;;4988878;28;20551;-26
2020/12/20 09:45:57;;;;;;;12.00;10.87;;;10.20;99.90;;;;;;4986714;28;20464;-25
2020/12/20 09:48:24;;;;;;;11.83;10.73;;;10.40;99.90;;;;;;4987765;28;20583;-26
2020/12/20 09:50:51;;;;;;;11.27;10.17;;;10.50;99.90;;;;;;4984484;28;20589;-26
2020/12/20 09:53:18;;;;;;;10.90;9.90;;;10.40;99.90;;;;;;4986234;28;20474;-25
2020/12/20 09:55:45;;;;;;;10.57;9.77;;;10.30;99.90;;;;;;4988619;28;20850;-25
2020/12/20 09:58:13;;;;;;;12.03;10.50;;;10.20;99.90;;;;;;4984470;28;20456;-26
2020/12/20 10:00:42;;;;;;;9.57;8.77;;;9.90;99.90;;;;;;4985445;28;20557;-26
2020/12/20 10:03:09;;;;;;;9.33;8.63;;;9.70;99.90;;;;;;4985093;28;20676;-25
2020/12/20 10:05:35;;;;;;;10.67;9.73;;;9.50;99.90;;;;;;4982623;28;20808;-26
2020/12/20 10:08:03;;;;;;;10.00;9.20;;;9.60;99.90;;;;;;4986089;28;20698;-26
2020/12/20 10:10:30;;;;;;;10.57;9.50;;;9.70;99.90;;;;;;4984671;28;20470;-25
2020/12/20 10:12:57;;;;;;;9.57;8.83;;;9.90;99.90;;;;;;4985960;28;20515;-25
2020/12/20 10:15:24;;;;;;;9.40;8.70;;;10.00;99.90;;;;;;4986460;28;20484;-26
2020/12/20 10:17:51;;;;;;;9.00;8.30;;;10.10;99.90;;;;;;4984883;28;20522;-26
2020/12/20 10:20:18;;;;;;;10.27;9.07;;;10.30;99.90;;;;;;4987416;28;20791;-25
2020/12/20 10:22:44;;;;;;;10.43;9.63;;;10.40;99.90;;;;;;4986585;28;20792;-25
2020/12/20 10:25:12;;;;;;;10.23;9.53;;;10.50;99.90;;;;;;4987817;28;20731;-26
2020/12/20 10:27:41;;;;;;;11.67;10.80;;;10.50;99.90;;;;;;4986029;28;20815;-27
2020/12/20 10:30:08;;;;;;;9.83;9.13;;;10.50;99.90;;;;;;4987963;28;20440;-25
2020/12/20 10:32:34;;;;;;;10.93;9.93;;;10.70;99.90;;;;;;4986443;28;20455;-26
2020/12/20 10:35:01;;;;;;;11.23;10.13;;;10.70;99.90;;;;;;4984946;28;20468;-26
2020/12/20 10:37:27;;;;;;;11.63;10.43;;;10.80;99.90;;;;;;4984032;28;21057;-25
2020/12/20 10:39:55;;;;;;;11.80;10.60;;;10.90;99.90;;;;;;4985990;28;20429;-25
2020/12/20 10:42:22;;;;;;;13.53;11.97;;;10.90;99.90;;;;;;4986195;28;20735;-26
2020/12/20 10:44:51;;;;;;;12.13;11.03;;;11.00;99.90;;;;;;4984351;28;20755;-25
2020/12/20 10:47:18;;;;;;;9.93;9.13;;;11.00;99.90;;;;;;4984179;28;20476;-27
2020/12/20 10:49:45;;;;;;;10.17;9.40;;;11.20;99.90;;;;;;4986695;28;20513;-25
2020/12/20 10:52:12;;;;;;;10.63;9.67;;;11.20;99.90;;;;;;4987079;28;20661;-25
2020/12/20 10:54:38;;;;;;;10.27;9.27;;;11.20;99.90;;;;;;4987280;28;20789;-26
2020/12/20 10:57:05;;;;;;;9.83;9.13;;;11.10;99.90;;;;;;4987097;28;20718;-26
2020/12/20 10:59:32;;;;;;;10.40;9.60;;;11.00;99.90;;;;;;4991114;28;20428;-26
2020/12/20 11:02:00;;;;;;;10.40;9.60;;;10.80;99.90;;;;;;4992791;28;20452;-26
2020/12/20 11:04:27;;;;;;;12.03;10.43;;;10.60;99.90;;;;;;4992210;28;20885;-25
2020/12/20 11:06:55;;;;;;;10.53;9.63;;;10.50;99.90;;;;;;4991815;28;20487;-26
2020/12/20 11:09:22;;;;;;;11.20;10.20;;;10.60;99.90;;;;;;4992266;28;20791;-25
2020/12/20 11:11:49;;;;;;;11.10;10.20;;;10.70;99.90;;;;;;4991968;28;20466;-25
2020/12/20 11:14:16;;;;;;;10.73;9.50;;;10.80;99.90;;;;;;4990213;28;20615;-25
2020/12/20 11:16:42;;;;;;;10.50;9.53;;;10.90;99.90;;;;;;4992986;28;20436;-25
2020/12/20 11:19:13;;;;;;;11.00;10.07;;;10.90;99.90;;;;;;4992200;28;20729;-26
2020/12/20 11:21:40;;;;;;;10.57;9.53;;;11.10;99.90;;;;;;4991236;28;20463;-25
2020/12/20 11:24:07;;;;;;;9.43;8.63;;;11.10;99.90;;;;;;4990119;28;20452;-26
2020/12/20 11:26:35;;;;;;;8.80;8.10;;;11.10;99.90;;;;;;4960151;28;20464;-25
2020/12/20 11:29:02;;;;;;;10.43;9.57;;;11.10;99.90;;;;;;4988978;28;20472;-25
2020/12/20 11:31:29;;;;;;;11.40;10.57;;;11.20;99.90;;;;;;4987782;28;20448;-25
2020/12/20 11:33:55;;;;;;;11.07;10.23;;;11.30;99.90;;;;;;4989080;28;20451;-26
2020/12/20 11:36:24;;;;;;;13.43;12.20;;;11.40;99.90;;;;;;4987655;28;20479;-26
2020/12/20 11:38:52;;;;;;;11.40;10.60;;;11.40;99.90;;;;;;4989087;28;20764;-26
2020/12/20 11:41:20;;;;;;;12.43;11.43;;;11.40;99.90;;;;;;4989530;28;20452;-25
2020/12/20 11:43:47;;;;;;;12.17;11.00;;;11.40;99.90;;;;;;4989077;28;20831;-26
2020/12/20 11:46:15;;;;;;;11.90;10.60;;;11.40;99.90;;;;;;4988690;28;20518;-25
2020/12/20 11:48:42;;;;;;;11.67;10.47;;;11.50;99.90;;;;;;4988962;28;20502;-25
2020/12/20 11:51:10;;;;;;;11.20;10.30;;;11.50;99.90;;;;;;4989245;28;20445;-25
2020/12/20 11:53:37;;;;;;;12.30;11.10;;;11.60;99.90;;;;;;4987851;28;20451;-25
2020/12/20 11:56:07;;;;;;;12.00;10.77;;;11.60;99.90;;;;;;4987374;28;20870;-26
2020/12/20 11:58:34;;;;;;;10.73;9.93;;;11.70;99.90;;;;;;4989336;28;20444;-25
2020/12/20 12:01:01;;;;;;;10.43;9.43;;;11.80;99.90;;;;;;4989522;28;20567;-26
2020/12/20 12:03:28;;;;;;;11.10;10.20;;;11.90;99.90;;;;;;4985284;28;20451;-26
2020/12/20 12:05:57;;;;;;;12.00;11.00;;;12.10;99.90;;;;;;4984545;28;20437;-25
2020/12/20 12:08:24;;;;;;;11.93;10.93;;;12.20;99.90;;;;;;4988349;28;20916;-25
2020/12/20 12:10:52;;;;;;;12.20;11.07;;;12.20;99.90;;;;;;4987911;28;20452;-26
2020/12/20 12:13:19;;;;;;;11.37;10.37;;;12.30;99.90;;;;;;4987295;28;20503;-26
2020/12/20 12:15:46;;;;;;;11.57;10.50;;;12.40;99.90;;;;;;4987385;28;20593;-25
2020/12/20 12:18:22;;;;;;;11.40;10.40;;;12.40;99.90;;;;;;4990573;28;20466;-25
2020/12/20 12:20:49;;;;;;;11.23;10.23;;;12.30;99.90;;;;;;4990871;28;20444;-25
2020/12/20 12:23:15;;;;;;;11.53;10.53;;;12.20;99.90;;;;;;4991365;28;20563;-26
2020/12/20 12:25:42;;;;;;;11.40;10.47;;;12.20;99.90;;;;;;4989971;28;20865;-25
2020/12/20 12:28:10;;;;;;;11.20;10.20;;;11.90;99.90;;;;;;4986274;28;20538;-25
2020/12/20 12:30:37;;;;;;;11.70;10.70;;;11.90;99.90;;;;;;4986186;28;20484;-25
2020/12/20 12:33:03;;;;;;;11.87;10.63;;;11.80;99.90;;;;;;4988881;28;21029;-25
2020/12/20 12:35:30;;;;;;;12.90;11.17;;;11.90;99.90;;;;;;4986630;28;20444;-25
2020/12/20 12:37:57;;;;;;;12.20;10.97;;;12.10;99.90;;;;;;4988821;28;20483;-25
2020/12/20 12:40:23;;;;;;;10.90;9.90;;;12.00;99.90;;;;;;4989510;28;20563;-25
2020/12/20 12:42:50;;;;;;;13.00;11.80;;;11.70;99.90;;;;;;4987640;28;20653;-25
2020/12/20 12:45:19;;;;;;;13.47;12.23;;;11.70;99.90;;;;;;4985005;28;20843;-25
2020/12/20 12:47:46;;;;;;;2.37;2.37;;;11.70;99.90;;;;;;4986164;28;20473;-25
2020/12/20 12:50:13;;;;;;;2.20;2.20;;;11.70;99.90;;;;;;4984548;28;20451;-25
2020/12/20 12:52:39;;;;;;;2.20;2.20;;;11.50;99.90;;;;;;4985638;28;20842;-25
2020/12/20 12:55:06;;;;;;;12.43;11.33;;;11.60;99.90;;;;;;4986603;28;20440;-25
2020/12/20 12:57:32;;;;;;;15.07;13.47;;;11.70;99.90;;;;;;4986203;28;20555;-25
2020/12/20 13:00:01;;;;;;;13.90;12.50;;;11.80;99.90;;;;;;4986425;28;20881;-25
2020/12/20 13:02:28;;;;;;;12.30;11.10;;;11.80;99.90;;;;;;4985871;28;20440;-26